Time;durP1;ratioP1;P1;durP2;ratioP2;P2;SDS_P1;SDS_P2;PMS_P1;PMS_P2;Temp;Humidity;BMP_temperature;BMP_pressure;BME280_temperature;BME280_humidity;BME280_pressure;Samples;Min_cycle;Max_cycle;Signal;HPM_P1;HPM_P2
2022/07/04 00:00:16;;;;;;;8.00;2.70;;;;;;;23.83;41.67;99878.91;5077292;28;20043;-37
2022/07/04 00:02:43;;;;;;;8.45;2.50;;;;;;;23.70;42.79;99888.50;5069802;28;20028;-38
2022/07/04 00:05:10;;;;;;;4.55;2.42;;;;;;;23.73;42.09;99879.78;5069499;28;20334;-37
2022/07/04 00:07:39;;;;;;;8.05;2.80;;;;;;;24.07;41.11;99874.28;5069216;28;20494;-38
2022/07/04 00:10:05;;;;;;;;;;;;;;;23.73;41.25;99880.59;5070071;28;20032;-37
2022/07/04 00:12:30;;;;;;;4.80;2.60;;;;;;;23.66;41.16;99879.31;5070565;28;20007;-38
2022/07/04 00:14:56;;;;;;;5.63;2.60;;;;;;;23.54;41.37;99872.34;5069588;28;20028;-38
2022/07/04 00:17:21;;;;;;;5.45;2.80;;;;;;;23.60;41.32;99870.41;5069464;28;20129;-38
2022/07/04 00:19:46;;;;;;;4.55;2.60;;;;;;;24.08;40.41;99867.72;5069782;28;20483;-38
2022/07/04 00:22:12;;;;;;;10.93;2.70;;;;;;;23.89;40.56;99866.88;5069446;28;20020;-38
2022/07/04 00:24:37;;;;;;;5.97;2.60;;;;;;;23.60;41.64;99859.53;5069228;28;20052;-38
2022/07/04 00:27:03;;;;;;;4.70;2.67;;;;;;;23.56;41.30;99847.63;5069475;28;20024;-38
2022/07/04 00:29:29;;;;;;;5.93;2.80;;;;;;;23.68;41.59;99839.88;5069111;28;20078;-37
2022/07/04 00:31:55;;;;;;;3.97;2.60;;;;;;;23.96;40.76;99851.84;5069551;28;20031;-37
2022/07/04 00:34:20;;;;;;;6.50;2.67;;;;;;;24.20;39.77;99853.72;5069446;28;20017;-37
2022/07/04 00:36:46;;;;;;;6.90;2.40;;;;;;;23.80;40.08;99847.69;5069413;28;20059;-38
2022/07/04 00:39:11;;;;;;;5.85;2.67;;;;;;;23.70;40.39;99843.13;5082232;28;20078;-37
2022/07/04 00:41:36;;;;;;;6.25;2.45;;;;;;;23.53;40.46;99853.63;5089374;28;20024;-37
2022/07/04 00:44:07;;;;;;;5.43;2.70;;;;;;;23.64;40.68;99846.19;5089257;28;20479;-38
2022/07/04 00:46:33;;;;;;;4.78;2.30;;;;;;;24.02;40.08;99838.19;5089341;28;20050;-38
2022/07/04 00:48:59;;;;;;;3.75;2.53;;;;;;;24.56;39.07;99840.50;5089048;28;20168;-37
2022/07/04 00:51:26;;;;;;;5.15;2.72;;;;;;;24.57;39.56;99844.00;5088710;28;20094;-38
2022/07/04 00:53:53;;;;;;;5.72;2.67;;;;;;;23.75;41.23;99845.78;5088428;28;20052;-37
2022/07/04 00:56:20;;;;;;;3.83;2.30;;;;;;;23.73;41.61;99845.28;5088894;28;20462;-37
2022/07/04 00:58:45;;;;;;;5.10;2.53;;;;;;;23.60;42.45;99841.31;5088657;28;20059;-37
2022/07/04 01:01:11;;;;;;;7.28;2.75;;;;;;;23.70;42.78;99840.41;5068602;28;20063;-37
2022/07/04 01:03:36;;;;;;;5.43;2.65;;;;;;;24.30;41.21;99837.28;5068848;28;20426;-37
2022/07/04 01:06:03;;;;;;;7.72;2.90;;;;;;;23.83;41.87;99833.50;5069048;28;20107;-38
2022/07/04 01:08:28;;;;;;;4.85;2.78;;;;;;;23.50;42.97;99829.78;5068998;28;20074;-38
2022/07/04 01:10:54;;;;;;;6.45;2.70;;;;;;;23.39;43.20;99832.56;5068891;28;20236;-37
2022/07/04 01:13:24;;;;;;;4.80;2.83;;;;;;;23.46;43.23;99828.75;5069144;28;20024;-37
2022/07/04 01:15:53;;;;;;;7.32;3.10;;;;;;;24.02;41.77;99828.13;5069087;28;20122;-38
2022/07/04 01:18:18;;;;;;;7.68;3.30;;;;;;;23.75;41.49;99820.53;5069138;28;20016;-37
2022/07/04 01:20:44;;;;;;;10.07;2.90;;;;;;;23.47;42.42;99822.19;5069038;28;20105;-38
2022/07/04 01:23:10;;;;;;;8.45;2.90;;;;;;;23.36;42.33;99825.03;5069184;28;20012;-37
2022/07/04 01:25:36;;;;;;;5.07;3.10;;;;;;;23.35;42.86;99822.59;5071466;28;20503;-37
2022/07/04 01:28:02;;;;;;;6.10;2.97;;;;;;;23.49;43.14;99830.88;5072786;28;20052;-38
2022/07/04 01:30:29;;;;;;;6.97;2.90;;;;;;;24.21;41.79;99814.56;5072876;28;20044;-38
2022/07/04 01:32:54;;;;;;;9.65;3.33;;;;;;;24.44;40.94;99806.63;5072627;28;20138;-38
2022/07/04 01:35:21;;;;;;;8.02;3.17;;;;;;;23.55;43.42;99813.41;5072571;28;20107;-38
2022/07/04 01:37:47;;;;;;;6.72;3.00;;;;;;;23.18;44.24;99807.53;5072596;28;20025;-37
2022/07/04 01:40:13;;;;;;;10.10;3.08;;;;;;;23.19;44.78;99805.66;5072580;28;20106;-37
2022/07/04 01:42:40;;;;;;;5.50;2.97;;;;;;;23.26;45.01;99808.81;5072393;28;20017;-37
2022/07/04 01:45:06;;;;;;;6.75;3.15;;;;;;;23.51;44.27;99799.59;5072347;28;20048;-37
2022/07/04 01:47:32;;;;;;;9.25;3.10;;;;;;;23.25;45.15;99806.38;5072023;28;20039;-37
2022/07/04 01:49:58;;;;;;;4.30;3.00;;;;;;;22.94;46.11;99804.75;5072173;28;20128;-37
2022/07/04 01:52:23;;;;;;;6.50;3.00;;;;;;;22.91;46.33;99804.50;5072167;28;20529;-38
2022/07/04 01:54:49;;;;;;;5.07;3.15;;;;;;;23.00;46.58;99811.75;5071836;28;20046;-38
2022/07/04 01:57:14;;;;;;;6.18;3.03;;;;;;;23.23;45.87;99815.63;5072108;28;20029;-38
2022/07/04 02:02:24;;;;;;;7.68;3.10;;;;;;;24.29;43.29;99807.66;5092618;28;20027;-38
2022/07/04 02:04:50;;;;;;;8.48;3.40;;;;;;;23.93;44.35;99810.84;5091477;28;20027;-37
2022/07/04 02:07:15;;;;;;;6.05;3.30;;;;;;;23.34;45.45;99812.81;5091653;28;20016;-38
2022/07/04 02:09:41;;;;;;;7.80;2.90;;;;;;;23.44;44.84;99812.72;5091163;28;20035;-38
2022/07/04 02:14:51;;;;;;;7.82;3.15;;;;;;;23.42;44.80;99818.44;5091880;28;20419;-38
2022/07/04 02:17:16;;;;;;;12.25;3.30;;;;;;;23.76;43.44;99795.81;5091297;28;20020;-38
2022/07/04 02:19:42;;;;;;;8.75;3.60;;;;;;;24.28;42.55;99819.66;5091334;28;20047;-38
2022/07/04 02:22:07;;;;;;;8.65;3.50;;;;;;;23.70;43.91;99812.44;5091370;28;20619;-38
2022/07/04 02:24:33;;;;;;;6.68;3.45;;;;;;;23.10;45.50;99824.44;5090865;28;20448;-38
2022/07/04 02:26:58;;;;;;;12.05;3.60;;;;;;;23.15;45.52;99820.84;5090545;28;20028;-38
2022/07/04 02:29:24;;;;;;;9.60;3.50;;;;;;;23.35;45.02;99820.69;5091024;28;20023;-38
2022/07/04 02:31:49;;;;;;;9.85;3.60;;;;;;;23.23;45.89;99823.78;5091345;28;20138;-38
2022/07/04 02:34:14;;;;;;;5.18;3.33;;;;;;;23.37;45.78;99828.53;5091646;28;20024;-37
2022/07/04 02:36:40;;;;;;;13.43;3.70;;;;;;;23.64;44.89;99827.97;5091338;28;20397;-38
2022/07/04 02:39:05;;;;;;;10.20;3.65;;;;;;;23.31;45.55;99835.13;5090306;28;20152;-37
2022/07/04 02:41:32;;;;;;;7.43;3.45;;;;;;;23.00;47.23;99838.06;5091733;28;20031;-39
2022/07/04 02:43:58;;;;;;;9.02;3.70;;;;;;;23.11;46.77;99828.75;5091703;28;20210;-38
2022/07/04 02:46:24;;;;;;;13.38;3.35;;;;;;;23.45;45.70;99843.41;5091310;28;20440;-38
2022/07/04 02:48:49;;;;;;;15.35;3.95;;;;;;;23.74;45.01;99843.34;5090847;28;20166;-38
2022/07/04 02:51:15;;;;;;;8.05;3.15;;;;;;;23.07;46.59;99844.00;5091409;28;20032;-38
2022/07/04 02:53:41;;;;;;;8.98;3.55;;;;;;;22.87;47.06;99847.66;5091251;28;20031;-38
2022/07/04 02:56:07;;;;;;;12.13;3.55;;;;;;;22.89;47.72;99850.91;5091731;28;20392;-36
2022/07/04 02:58:32;;;;;;;9.57;3.88;;;;;;;23.22;46.65;99857.44;5091148;28;20024;-38
2022/07/04 03:00:58;;;;;;;6.95;3.47;;;;;;;23.40;45.64;99858.66;5091530;28;20028;-37
2022/07/04 03:03:24;;;;;;;10.48;3.50;;;;;;;22.81;47.66;99856.94;5091785;28;20376;-37
2022/07/04 03:05:49;;;;;;;9.00;3.72;;;;;;;22.83;47.15;99854.75;5091414;28;20031;-37
2022/07/04 03:08:15;;;;;;;10.77;4.05;;;;;;;22.94;46.87;99858.19;5091377;28;20024;-37
2022/07/04 03:10:40;;;;;;;121.93;81.63;;;;;;;23.36;45.72;99860.31;5091624;28;20114;-37
2022/07/04 03:13:06;;;;;;;18.95;10.75;;;;;;;23.34;46.19;99867.13;5091458;28;20032;-37
2022/07/04 03:15:31;;;;;;;12.43;5.10;;;;;;;22.89;46.83;99850.91;5091133;28;20019;-37
2022/07/04 03:17:57;;;;;;;8.18;4.50;;;;;;;22.89;46.89;99867.19;5091245;28;20051;-38
2022/07/04 03:20:22;;;;;;;6.10;3.20;;;;;;;22.98;46.65;99865.50;5091446;28;20476;-37
2022/07/04 03:22:48;;;;;;;8.35;3.95;;;;;;;23.49;44.87;99866.16;5091207;28;20024;-37
2022/07/04 03:25:14;;;;;;;5.57;3.70;;;;;;;23.52;44.88;99865.59;5090740;28;20065;-37
2022/07/04 03:27:39;;;;;;;7.28;3.85;;;;;;;23.29;45.57;99861.75;5082725;28;20467;-37
2022/07/04 03:30:05;;;;;;;8.95;3.80;;;;;;;23.16;46.01;99864.00;5082158;28;20101;-37
2022/07/04 03:32:31;;;;;;;4.78;3.97;;;;;;;23.31;45.76;99851.41;5082075;28;20035;-37
2022/07/04 03:34:56;;;;;;;6.25;3.90;;;;;;;23.47;45.64;99861.00;5080341;28;20020;-36
2022/07/04 03:37:22;;;;;;;7.70;3.65;;;;;;;23.31;46.28;99857.63;5078684;28;20487;-35
2022/07/04 03:39:47;;;;;;;5.45;3.85;;;;;;;23.19;46.59;99854.50;5079441;28;20028;-37
2022/07/04 03:42:13;;;;;;;6.22;3.60;;;;;;;23.16;46.86;99855.06;5081096;28;20055;-37
2022/07/04 03:44:38;;;;;;;8.88;3.80;;;;;;;23.43;46.34;99855.34;5087776;28;20050;-36
2022/07/04 03:47:04;;;;;;;11.45;3.70;;;;;;;24.02;45.24;99852.59;5090459;28;20028;-37
2022/07/04 03:49:29;;;;;;;6.30;3.72;;;;;;;24.50;44.47;99849.81;5090567;28;20044;-36
2022/07/04 03:51:55;;;;;;;6.60;3.20;;;;;;;24.10;45.54;99854.66;5090528;28;20040;-37
2022/07/04 03:54:20;;;;;;;6.97;3.60;;;;;;;24.34;45.28;99857.34;5091344;28;20020;-37
2022/07/04 03:56:45;;;;;;;10.60;3.42;;;;;;;24.68;44.27;99844.69;5090267;28;20031;-37
2022/07/04 03:59:11;;;;;;;6.53;3.40;;;;;;;24.90;43.66;99850.31;5086716;28;20533;-37
2022/07/04 04:01:36;;;;;;;4.15;3.30;;;;;;;25.28;43.09;99852.97;5070304;28;20407;-41
2022/07/04 04:06:45;;;;;;;6.38;3.20;;;;;;;25.38;42.70;99859.34;5070197;28;20406;-38
2022/07/04 04:09:16;;;;;;;9.90;3.08;;;;;;;25.48;42.68;99861.91;5082857;28;20032;-45
2022/07/04 04:11:45;;;;;;;6.40;3.20;;;;;;;25.71;41.76;99860.13;5089682;28;20073;-46
2022/07/04 04:14:12;;;;;;;10.68;3.65;;;;;;;26.08;40.92;99859.16;5087522;28;20032;-43
2022/07/04 04:16:37;;;;;;;7.38;3.58;;;;;;;26.69;39.70;99853.47;5089591;28;20143;-45
2022/07/04 04:19:04;;;;;;;11.55;5.47;;;;;;;27.47;38.36;99850.50;5089452;28;20020;-43
2022/07/04 04:21:29;;;;;;;6.65;3.83;;;;;;;27.41;38.39;99849.03;5088171;28;20020;-43
2022/07/04 04:23:55;;;;;;;12.07;3.78;;;;;;;27.03;38.83;99852.94;5088031;28;20039;-43
2022/07/04 04:26:21;;;;;;;6.28;3.63;;;;;;;27.10;38.48;99847.06;5088610;28;20027;-44
2022/07/04 04:28:47;;;;;;;7.68;3.20;;;;;;;27.75;37.80;99845.63;5089470;28;20107;-43
2022/07/04 04:31:14;;;;;;;6.03;3.17;;;;;;;27.94;37.19;99856.34;5092483;28;20432;-45
2022/07/04 04:33:40;;;;;;;10.23;3.20;;;;;;;27.67;37.41;99852.69;5091712;28;20036;-46
2022/07/04 04:36:06;;;;;;;6.55;3.50;;;;;;;27.79;37.79;99864.94;5090282;28;20109;-45
2022/07/04 04:38:32;;;;;;;6.13;3.40;;;;;;;28.30;36.64;99857.25;5087905;28;20056;-43
2022/07/04 04:40:57;;;;;;;7.97;3.50;;;;;;;28.59;35.94;99871.13;5088619;28;20028;-36
2022/07/04 04:43:22;;;;;;;5.28;3.17;;;;;;;28.55;35.50;99861.16;5088923;28;20164;-37
2022/07/04 04:45:48;;;;;;;8.20;3.30;;;;;;;28.78;35.33;99867.28;5088439;28;20038;-36
2022/07/04 04:48:14;;;;;;;9.43;3.28;;;;;;;28.95;34.87;99861.78;5089441;28;20040;-36
2022/07/04 04:50:40;;;;;;;8.48;3.30;;;;;;;29.51;33.03;99864.63;5091519;28;20465;-45
2022/07/04 04:53:05;;;;;;;10.00;3.30;;;;;;;29.26;33.75;99865.47;5090899;28;20036;-47
2022/07/04 04:55:31;;;;;;;6.85;3.30;;;;;;;29.43;33.75;99869.00;5089459;28;20078;-49
2022/07/04 04:57:56;;;;;;;6.55;3.20;;;;;;;29.54;33.60;99868.63;5089770;28;20042;-43
2022/07/04 05:00:21;;;;;;;8.20;3.05;;;;;;;30.17;32.72;99869.66;5092510;28;20406;-37
2022/07/04 05:02:47;;;;;;;10.40;3.85;;;;;;;29.85;33.11;99859.34;5093732;28;20016;-38
2022/07/04 05:05:12;;;;;;;16.45;3.95;;;;;;;29.81;33.05;99873.69;5093995;28;20348;-37
2022/07/04 05:07:38;;;;;;;8.40;3.42;;;;;;;30.01;32.41;99865.88;5093371;28;20418;-37
2022/07/04 05:10:04;;;;;;;8.48;3.78;;;;;;;30.32;32.42;99868.28;5100465;28;20032;-43
2022/07/04 05:12:29;;;;;;;9.18;3.40;;;;;;;30.38;31.96;99872.44;5094517;28;20031;-36
2022/07/04 05:14:55;;;;;;;8.00;3.50;;;;;;;30.42;32.72;99858.88;5093394;28;20035;-37
2022/07/04 05:17:21;;;;;;;13.68;3.72;;;;;;;30.63;31.31;99858.88;5093212;28;20028;-37
2022/07/04 05:19:48;;;;;;;12.43;3.90;;;;;;;31.31;30.86;99861.31;5093369;28;20071;-38
2022/07/04 05:22:14;;;;;;;9.82;3.65;;;;;;;31.42;30.65;99855.41;5092018;28;20057;-37
2022/07/04 05:24:40;;;;;;;10.82;3.67;;;;;;;31.17;31.44;99852.59;5093243;28;20028;-37
2022/07/04 05:27:08;;;;;;;10.82;3.63;;;;;;;31.37;31.20;99861.91;5093242;28;20031;-37
2022/07/04 05:29:33;;;;;;;7.78;3.85;;;;;;;31.65;30.33;99853.06;5093672;28;20537;-36
2022/07/04 05:31:59;;;;;;;7.45;3.30;;;;;;;32.09;29.73;99859.59;5093486;28;20024;-37
2022/07/04 05:34:30;;;;;;;7.10;3.50;;;;;;;31.43;30.50;99863.28;5093884;28;20423;-38
2022/07/04 05:36:56;;;;;;;7.05;3.40;;;;;;;31.28;30.79;99862.03;5094486;28;20498;-44
2022/07/04 05:39:21;;;;;;;11.40;3.65;;;;;;;32.01;29.67;99852.25;5093069;28;20106;-43
2022/07/04 05:41:47;;;;;;;5.53;3.40;;;;;;;32.68;28.81;99852.72;5093321;28;20031;-43
2022/07/04 05:44:12;;;;;;;6.57;3.30;;;;;;;32.17;29.17;99830.34;5093151;28;20492;-46
2022/07/04 05:46:38;;;;;;;5.85;3.20;;;;;;;32.60;28.81;99850.94;5093375;28;20471;-46
2022/07/04 05:49:03;;;;;;;8.90;3.75;;;;;;;32.58;28.88;99852.41;5092762;28;20070;-42
2022/07/04 05:51:29;;;;;;;8.40;3.28;;;;;;;33.51;27.64;99857.72;5093260;28;20023;-44
2022/07/04 05:53:55;;;;;;;8.45;3.38;;;;;;;33.07;27.82;99854.97;5093485;28;20402;-43
2022/07/04 05:56:20;;;;;;;8.38;3.25;;;;;;;32.62;28.16;99853.34;5095628;28;20031;-43
2022/07/04 05:58:46;;;;;;;8.27;3.20;;;;;;;32.54;27.68;99847.59;5092603;28;20402;-44
2022/07/04 06:01:11;;;;;;;7.28;2.92;;;;;;;33.63;26.39;99854.09;5092802;28;20044;-45
2022/07/04 06:03:37;;;;;;;5.70;2.90;;;;;;;33.38;26.99;99850.69;5092242;28;20032;-45
2022/07/04 06:06:04;;;;;;;9.50;3.00;;;;;;;33.05;26.89;99852.59;5092510;28;20032;-42
2022/07/04 06:08:29;;;;;;;7.68;3.00;;;;;;;33.10;26.84;99857.03;5092577;28;20020;-45
2022/07/04 06:10:55;;;;;;;5.13;2.80;;;;;;;33.14;26.43;99852.44;5092714;28;20035;-43
2022/07/04 06:13:21;;;;;;;8.00;2.90;;;;;;;34.06;25.18;99852.34;5093021;28;20020;-44
2022/07/04 06:15:47;;;;;;;7.95;3.10;;;;;;;33.41;26.01;99850.75;5092668;28;20108;-45
2022/07/04 06:18:12;;;;;;;8.43;3.20;;;;;;;33.39;26.23;99842.06;5092835;28;20043;-44
2022/07/04 06:20:40;;;;;;;9.38;2.78;;;;;;;33.66;25.70;99848.69;5092167;28;20024;-46
2022/07/04 06:23:05;;;;;;;7.70;2.83;;;;;;;33.87;25.17;99833.78;5092454;28;20062;-47
2022/07/04 06:25:31;;;;;;;5.97;2.63;;;;;;;33.61;25.78;99846.16;5092353;28;20067;-46
2022/07/04 06:28:02;;;;;;;6.30;2.70;;;;;;;33.78;25.59;99844.22;5093051;28;20044;-38
2022/07/04 06:30:28;;;;;;;7.85;3.00;;;;;;;34.17;25.48;99844.34;5093918;28;20124;-37
2022/07/04 06:32:56;;;;;;;6.88;2.80;;;;;;;34.56;25.73;99841.63;5087169;28;20442;-37
2022/07/04 06:38:08;;;;;;;6.75;2.90;;;;;;;34.40;24.68;99841.69;5080448;28;20277;-37
2022/07/04 06:40:34;;;;;;;5.55;2.78;;;;;;;34.08;25.29;99847.25;5091578;28;20031;-37
2022/07/04 06:43:00;;;;;;;6.15;3.00;;;;;;;34.16;25.03;99837.25;5080606;28;20020;-37
2022/07/04 06:45:27;;;;;;;5.65;2.90;;;;;;;34.12;24.28;99830.78;5091502;28;20055;-38
2022/07/04 06:47:53;;;;;;;6.05;3.10;;;;;;;33.14;25.77;99824.06;5089848;28;20172;-37
2022/07/04 06:50:18;;;;;;;6.07;2.70;;;;;;;33.57;25.38;99825.97;5090203;28;20328;-37
2022/07/04 06:52:44;;;;;;;6.95;3.00;;;;;;;33.68;25.46;99831.75;5090244;28;20042;-37
2022/07/04 06:55:10;;;;;;;5.35;3.00;;;;;;;34.01;25.34;99825.84;5090009;28;20058;-38
2022/07/04 06:57:36;;;;;;;8.60;2.80;;;;;;;33.86;24.92;99816.44;5089744;28;20035;-38
2022/07/04 07:00:02;;;;;;;11.75;2.90;;;;;;;33.67;25.29;99817.16;5079013;28;20032;-36
2022/07/04 07:02:28;;;;;;;3.67;2.53;;;;;;;34.19;24.81;99817.97;5069627;28;20048;-37
2022/07/04 07:04:55;;;;;;;3.70;2.70;;;;;;;34.50;23.90;99813.50;5070951;28;20106;-36
2022/07/04 07:07:21;;;;;;;5.65;2.80;;;;;;;34.89;23.63;99807.19;5070591;28;20028;-37
2022/07/04 07:09:46;;;;;;;5.55;2.90;;;;;;;35.04;23.64;99806.25;5069342;28;20028;-37
2022/07/04 07:12:11;;;;;;;7.05;2.80;;;;;;;35.15;23.81;99803.69;5069637;28;20024;-37
2022/07/04 07:14:37;;;;;;;5.70;2.90;;;;;;;35.24;24.03;99804.25;5069254;28;20027;-37
2022/07/04 07:17:03;;;;;;;27.50;4.00;;;;;;;35.00;23.78;99805.41;5069490;28;20028;-37
2022/07/04 07:19:28;;;;;;;4.13;2.58;;;;;;;34.90;23.90;99806.00;5069537;28;20086;-37
2022/07/04 07:21:53;;;;;;;7.75;3.10;;;;;;;35.05;23.42;99797.59;5069158;28;20048;-37
2022/07/04 07:24:19;;;;;;;5.80;3.10;;;;;;;35.16;23.61;99795.00;5070439;28;20039;-38
2022/07/04 07:26:44;;;;;;;4.28;2.78;;;;;;;35.82;23.41;99792.97;5071356;28;20028;-38
2022/07/04 07:29:10;;;;;;;7.20;2.83;;;;;;;35.87;23.53;99794.63;5071080;28;20036;-37
2022/07/04 07:31:35;;;;;;;6.18;3.30;;;;;;;35.52;23.27;99792.06;5071231;28;20037;-38
2022/07/04 07:34:00;;;;;;;7.03;3.00;;;;;;;35.88;23.97;99796.22;5070547;28;20559;-37
2022/07/04 07:36:26;;;;;;;5.18;3.30;;;;;;;36.36;23.63;99788.16;5070415;28;20028;-36
2022/07/04 07:38:53;;;;;;;6.93;3.20;;;;;;;37.05;22.79;99784.19;5070558;28;20017;-37
2022/07/04 07:41:18;;;;;;;8.43;3.10;;;;;;;36.62;23.47;99788.47;5070836;28;20415;-38
2022/07/04 07:43:44;;;;;;;6.28;3.13;;;;;;;35.85;24.02;99782.31;5070448;28;20020;-38
2022/07/04 07:46:09;;;;;;;5.78;2.83;;;;;;;36.05;23.60;99785.78;5070166;28;20024;-37
2022/07/04 07:48:35;;;;;;;7.22;3.35;;;;;;;37.06;22.91;99784.97;5070653;28;20067;-37
2022/07/04 07:51:00;;;;;;;7.90;3.25;;;;;;;36.35;23.73;99786.59;5070211;28;20028;-37
2022/07/04 07:53:26;;;;;;;7.00;3.05;;;;;;;36.54;24.08;99785.63;5070519;28;20502;-38
2022/07/04 07:55:51;;;;;;;7.70;2.95;;;;;;;36.22;23.91;99779.69;5070072;28;20415;-37
2022/07/04 07:58:17;;;;;;;6.85;2.88;;;;;;;36.78;23.37;99775.19;5070530;28;20021;-38
2022/07/04 08:00:43;;;;;;;7.85;2.83;;;;;;;37.72;22.66;99769.28;5087124;28;20032;-36
2022/07/04 08:05:52;;;;;;;6.18;2.90;;;;;;;36.65;23.53;99777.44;5090652;28;20035;-37
2022/07/04 08:08:17;;;;;;;4.05;3.03;;;;;;;36.81;23.11;99762.56;5090059;28;20016;-37
2022/07/04 08:10:43;;;;;;;11.75;3.00;;;;;;;37.63;22.09;99766.06;5088924;28;20024;-37
2022/07/04 08:13:09;;;;;;;10.18;3.13;;;;;;;36.87;22.92;99759.06;5090133;28;20024;-37
2022/07/04 08:15:38;;;;;;;7.20;3.13;;;;;;;37.01;22.83;99763.13;5090134;28;20055;-38
2022/07/04 08:18:03;;;;;;;5.95;3.10;;;;;;;37.01;23.36;99766.69;5089915;28;20020;-37
2022/07/04 08:20:29;;;;;;;10.77;3.53;;;;;;;37.00;22.33;99759.56;5090203;28;20055;-36
2022/07/04 08:22:55;;;;;;;5.70;3.03;;;;;;;36.82;22.91;99761.38;5090590;28;20024;-37
2022/07/04 08:25:21;;;;;;;6.85;3.40;;;;;;;37.02;22.18;99757.22;5090098;28;20027;-37
2022/07/04 08:27:47;;;;;;;7.10;3.33;;;;;;;37.07;22.38;99753.28;5090341;28;20019;-36
2022/07/04 08:30:12;;;;;;;5.88;3.03;;;;;;;36.54;23.27;99752.38;5090323;28;20152;-36
2022/07/04 08:32:38;;;;;;;6.30;3.00;;;;;;;37.04;22.81;99760.41;5090224;28;20044;-36
2022/07/04 08:35:04;;;;;;;6.55;3.05;;;;;;;37.11;22.09;99757.69;5089603;28;20438;-38
2022/07/04 08:37:30;;;;;;;5.85;2.97;;;;;;;37.34;22.27;99759.50;5090001;28;20024;-38
2022/07/04 08:39:55;;;;;;;8.75;3.10;;;;;;;37.90;22.67;99761.06;5089862;28;20428;-37
2022/07/04 08:42:22;;;;;;;7.93;2.95;;;;;;;38.19;21.65;99768.75;5090213;28;20042;-38
2022/07/04 08:44:50;;;;;;;6.70;3.10;;;;;;;38.09;22.10;99768.31;5089768;28;20042;-38
2022/07/04 08:47:24;;;;;;;4.68;3.05;;;;;;;37.87;22.63;99761.03;5090240;28;20036;-37
2022/07/04 08:50:04;;;;;;;3.55;2.90;;;;;;;38.47;21.77;99766.09;5089707;28;20036;-38
2022/07/04 08:52:39;;;;;;;4.32;2.97;;;;;;;38.71;20.93;99766.59;5089760;28;20016;-38
2022/07/04 09:00:39;;;;;;;5.80;2.70;;;;;;;38.94;20.44;99751.50;5089780;28;20150;-44
2022/07/04 09:03:06;;;;;;;5.47;2.85;;;;;;;38.59;21.10;99748.28;5089682;28;20119;-44
2022/07/04 09:05:32;;;;;;;5.05;3.05;;;;;;;38.27;20.68;99748.16;5089617;28;20024;-44
2022/07/04 09:07:59;;;;;;;5.22;2.90;;;;;;;37.45;20.02;99740.13;5090449;28;20094;-43
2022/07/04 09:10:25;;;;;;;3.38;2.50;;;;;;;37.73;19.13;99745.88;5088200;28;20021;-43
2022/07/04 09:12:50;;;;;;;5.05;2.72;;;;;;;37.34;18.75;99738.09;5089638;28;20035;-43
2022/07/04 09:15:17;;;;;;;2.85;2.33;;;;;;;37.49;18.33;99733.44;5089724;28;20163;-47
2022/07/04 09:17:42;;;;;;;4.35;2.75;;;;;;;36.98;18.71;99739.75;5089651;28;20069;-46
2022/07/04 09:20:18;;;;;;;6.05;2.53;;;;;;;37.08;18.78;99727.94;5089749;28;20032;-44
2022/07/04 09:22:45;;;;;;;4.10;2.63;;;;;;;37.19;18.28;99735.59;5089040;28;20024;-45
2022/07/04 09:25:14;;;;;;;5.43;2.70;;;;;;;37.21;17.60;99731.25;5089219;28;20039;-47
2022/07/04 09:27:42;;;;;;;4.15;2.65;;;;;;;37.45;17.99;99726.25;5089489;28;20020;-45
2022/07/04 09:30:08;;;;;;;2.83;2.30;;;;;;;38.01;18.38;99724.22;5089602;28;20024;-46
2022/07/04 09:32:36;;;;;;;4.50;2.80;;;;;;;38.64;17.52;99727.66;5089446;28;20028;-43
2022/07/04 09:35:03;;;;;;;4.68;2.53;;;;;;;38.36;18.05;99720.00;5089402;28;20428;-44
2022/07/04 09:37:46;;;;;;;7.78;2.60;;;;;;;38.55;17.34;99727.22;5089193;28;20052;-44
2022/07/04 09:40:25;;;;;;;5.22;2.83;;;;;;;38.84;17.30;99719.72;5089726;28;20514;-43
2022/07/04 09:42:50;;;;;;;;;;;;;;;38.83;15.73;99726.47;5089464;28;20402;-47
2022/07/04 09:45:16;;;;;;;4.50;2.45;;;;;;;36.87;17.97;99719.47;5089908;28;19908;-44
2022/07/04 09:47:45;;;;;;;4.57;2.88;;;;;;;36.50;18.42;99721.06;5092968;28;20079;-45
2022/07/04 09:50:13;;;;;;;4.28;2.60;;;;;;;36.05;19.49;99725.66;5092644;28;20054;-44
2022/07/04 09:52:48;;;;;;;2.80;2.42;;;;;;;36.32;19.49;99714.50;5093329;28;20016;-44
2022/07/04 09:55:21;;;;;;;4.22;2.45;;;;;;;36.35;18.83;99709.03;5092530;28;20028;-44
2022/07/04 09:57:46;;;;;;;4.70;2.60;;;;;;;36.35;19.44;99711.00;5092963;28;20032;-44
2022/07/04 10:00:22;;;;;;;4.32;2.45;;;;;;;37.07;18.12;99711.69;5092669;28;20387;-45
2022/07/04 10:02:48;;;;;;;3.15;2.50;;;;;;;37.59;18.41;99726.38;5092943;28;20519;-46
2022/07/04 10:05:19;;;;;;;4.00;2.50;;;;;;;37.00;18.79;99715.22;5092786;28;20055;-43
2022/07/04 10:07:47;;;;;;;3.70;2.38;;;;;;;36.48;18.56;99709.56;5092790;28;20477;-44
2022/07/04 10:10:35;;;;;;;4.38;2.50;;;;;;;36.68;19.58;99710.16;5092653;28;20130;-43
2022/07/04 10:13:03;;;;;;;9.70;2.70;;;;;;;37.26;19.20;99702.34;5092900;28;20333;-44
2022/07/04 10:15:30;;;;;;;7.35;2.50;;;;;;;37.06;18.39;99713.69;5092004;28;20062;-44
2022/07/04 10:17:55;;;;;;;6.07;2.70;;;;;;;36.78;18.68;99694.81;5092537;28;20390;-44
2022/07/04 10:20:21;;;;;;;7.07;2.92;;;;;;;36.74;19.48;99722.50;5092523;28;20028;-44
2022/07/04 10:22:47;;;;;;;5.00;2.72;;;;;;;36.06;20.05;99704.28;5092723;28;20466;-45
2022/07/04 10:25:12;;;;;;;3.88;2.58;;;;;;;35.62;20.49;99703.72;5092134;28;20024;-43
2022/07/04 10:27:38;;;;;;;4.65;2.50;;;;;;;35.82;19.87;99689.75;5092362;28;20020;-43
2022/07/04 10:30:07;;;;;;;5.20;2.78;;;;;;;35.62;19.76;99698.19;5092289;28;20455;-45
2022/07/04 10:32:34;;;;;;;8.00;2.70;;;;;;;35.64;19.96;99700.56;5092919;28;20036;-44
2022/07/04 10:34:59;;;;;;;4.43;2.47;;;;;;;36.09;20.05;99686.94;5092515;28;20388;-42
2022/07/04 10:37:26;;;;;;;5.13;2.65;;;;;;;35.65;20.81;99685.56;5092172;28;20073;-42
2022/07/04 10:39:51;;;;;;;5.88;2.80;;;;;;;35.28;20.74;99689.00;5092486;28;20028;-45
2022/07/04 10:42:24;;;;;;;3.35;2.70;;;;;;;35.54;21.10;99677.09;5092511;28;20031;-43
2022/07/04 10:44:50;;;;;;;3.75;2.50;;;;;;;35.75;21.40;99675.81;5092285;28;20020;-44
2022/07/04 10:47:24;;;;;;;4.60;2.65;;;;;;;36.07;20.33;99676.22;5092291;28;20024;-43
2022/07/04 10:49:51;;;;;;;7.45;3.20;;;;;;;35.99;21.10;99674.56;5092547;28;20039;-47
2022/07/04 10:52:17;;;;;;;4.72;2.60;;;;;;;36.11;21.24;99679.03;5091974;28;20024;-44
2022/07/04 10:54:44;;;;;;;4.65;2.80;;;;;;;36.17;20.60;99674.78;5092002;28;20024;-47
2022/07/04 10:57:16;;;;;;;3.20;2.60;;;;;;;35.44;21.22;99681.31;5091792;28;20024;-43
2022/07/04 11:00:04;;;;;;;4.03;2.70;;;;;;;35.07;21.99;99669.25;5091443;28;20024;-44
2022/07/04 11:02:34;;;;;;;4.13;2.70;;;;;;;35.18;22.08;99668.28;5092084;28;20047;-44
2022/07/04 11:05:06;;;;;;;6.70;2.60;;;;;;;35.39;22.48;99673.34;5091717;28;20116;-46
2022/07/04 11:07:37;;;;;;;4.63;2.70;;;;;;;35.19;22.23;99660.81;5091686;28;20036;-47
2022/07/04 11:12:55;;;;;;;4.05;2.80;;;;;;;35.46;21.32;99661.59;5091649;28;20035;-46
2022/07/04 11:17:54;;;;;;;4.28;2.53;;;;;;;35.91;21.29;99659.00;5091421;28;20054;-46
2022/07/04 11:20:20;;;;;;;3.35;2.67;;;;;;;35.31;22.54;99654.25;5091285;28;20039;-45
2022/07/04 11:22:46;;;;;;;5.93;2.80;;;;;;;35.78;21.29;99662.03;5091399;28;20032;-43
2022/07/04 11:25:11;;;;;;;9.07;2.80;;;;;;;36.75;21.29;99648.47;5091398;28;20156;-44
2022/07/04 11:27:40;;;;;;;4.53;2.53;;;;;;;36.15;21.88;99650.19;5091233;28;20034;-44
2022/07/04 11:30:07;;;;;;;5.80;2.42;;;;;;;35.98;21.65;99643.28;5091302;28;20042;-44
2022/07/04 11:32:34;;;;;;;4.20;2.72;;;;;;;35.43;22.50;99651.25;5091175;28;20406;-44
2022/07/04 11:35:03;;;;;;;3.70;3.00;;;;;;;35.38;22.68;99648.84;5091007;28;20028;-45
2022/07/04 11:37:28;;;;;;;6.57;2.90;;;;;;;35.27;22.46;99634.84;5090708;28;20509;-46
2022/07/04 11:45:24;;;;;;;4.90;2.70;;;;;;;36.06;21.41;99632.31;5091173;28;20046;-46
2022/07/04 11:47:49;;;;;;;5.45;3.03;;;;;;;36.04;21.98;99623.56;5090773;28;20048;-45
2022/07/04 11:50:19;;;;;;;2.85;2.55;;;;;;;36.08;22.07;99639.06;5090848;28;20032;-45
2022/07/04 11:52:53;;;;;;;4.40;2.72;;;;;;;35.66;21.49;99626.25;5090802;28;20028;-45
2022/07/04 11:55:19;;;;;;;4.32;2.70;;;;;;;36.21;21.91;99639.63;5090586;28;20038;-44
2022/07/04 11:57:54;;;;;;;2.83;2.58;;;;;;;35.98;21.29;99621.13;5091226;28;20106;-44